Aérodrome :
LOGIN :

S'inscrire | Disclaimer

   EN    FR    IT 

 










Légende :    VFR   VFR Marginal   IFR   IFR Intensif   IFR Très Intensif
Visi : 
Plafond : 
>= 8 km
>= 3000ft
5 à 8 km
1000 à 3000 ft
1500m à 5 km
500 à 1000 ft
800 à 1500m
200 à 500 ft
< 800m
< 200 ft
Symboles :   Orages  Brouillard  Fortes neiges  Fortes précipitations  Vent > 20 kt
SIGMETs :   Divers  Orages  Givrage  Turbulence  Onde Orograph.  Cendres Volcan.






- Altitude de l'aérodrome : 458 ft


LFSI - St-Dizier

DERNIER METAR :
  • 140830Z AUTO 16009KT 9999 OVC022 05/03 Q0999

METARs EXPIRÉS :
  • 140800Z AUTO 14007KT 9999 OVC023 04/02 Q0999
  • 140730Z AUTO 15008KT 120V180 9999 -DZ OVC026 04/02 Q0999
  • 140700Z AUTO 14009KT 9999 -RA FEW022/// SCT031/// BKN038/// ///TCU 04/02 Q0998
  • 140630Z AUTO 15007KT 7000 RA BKN024/// BKN033/// OVC041/// ///CB 04/02 Q0998
  • 140600Z AUTO 14008KT 9999 -RA BKN035/// BKN041/// OVC047/// ///CB 04/02 Q0997

TAF TAF LFSI
Valide du 14 à 09h jusqu'au 15 à 09h UTC


140800Z 1409/1509 15010KT 9999 SCT020 BKN025 BKN035
BECMG 1415/1417 09005KT
TEMPO 1418/1424 6000 RA BKN005 BKN020 BKN030
PROB30
TEMPO 1500/1503 2000 RASN BKN003 BKN025 BKN035
TEMPO 1500/1508 36010KT
TEMPO 1503/1509 2000 BR BKN003 BKN005 BKN030



MET'MAP, la Météo Aéronautique d'un coup d'oeil ! - Copyright ORBIFLY Décembre 2007 - Disclaimer

ORBIFLY MET'MAP TEAM :

Programmation & Développement : Alexandra Zaïnal
Conception & Développement : Baudouin d'Aumeries
Co-Programmation & Développement : Marc-Olivier Méhu
Soutien technique & logistique : Manuel Goepfert

Contact : metmap@orbifly.com




SOURCES & CREDITS :

   NOAA